createdAt,value
2023-05-21T00:03:27.181Z,18.23
2023-05-21T00:08:28.876Z,18.20
2023-05-21T00:13:30.233Z,18.23
2023-05-21T00:18:32.509Z,18.22
2023-05-21T00:23:34.188Z,18.22
2023-05-21T00:28:35.647Z,18.21
2023-05-21T00:33:37.286Z,18.21
2023-05-21T00:38:38.697Z,18.21
2023-05-21T00:43:40.313Z,18.22
2023-05-21T00:48:43.669Z,18.21
2023-05-21T00:53:45.863Z,18.19
2023-05-21T00:58:47.919Z,18.16
2023-05-21T01:03:49.396Z,18.09
2023-05-21T01:08:50.942Z,18.08
2023-05-21T01:13:52.469Z,18.04
2023-05-21T01:18:53.989Z,18.07
2023-05-21T01:23:56.087Z,18.09
2023-05-21T01:28:57.464Z,18.09
2023-05-21T01:34:05.572Z,18.03
2023-05-21T01:39:19.427Z,17.98
2023-05-21T01:44:22.945Z,17.98
2023-05-21T01:49:24.953Z,18.02
2023-05-21T01:54:26.327Z,17.99
2023-05-21T01:59:27.888Z,18.03
2023-05-21T02:04:29.350Z,18.05
2023-05-21T02:09:30.735Z,18.00
2023-05-21T02:14:33.679Z,17.92
2023-05-21T02:19:35.408Z,17.90
2023-05-21T02:24:36.815Z,17.88
2023-05-21T02:29:38.225Z,17.76
2023-05-21T02:34:42.270Z,17.73
2023-05-21T02:39:43.717Z,17.73
2023-05-21T02:44:45.080Z,17.76
2023-05-21T02:49:46.954Z,17.70
2023-05-21T02:54:48.400Z,17.74
2023-05-21T02:59:49.799Z,17.76
2023-05-21T03:04:51.486Z,17.75
2023-05-21T03:09:53.007Z,17.75
2023-05-21T03:14:54.438Z,17.72
2023-05-21T03:19:56.080Z,17.77
2023-05-21T03:24:58.177Z,17.75
2023-05-21T03:29:59.597Z,17.76
2023-05-21T03:35:00.965Z,17.77
2023-05-21T03:40:02.496Z,17.74
2023-05-21T03:45:04.125Z,17.74
2023-05-21T03:50:06.231Z,17.69
2023-05-21T03:55:08.037Z,17.65
2023-05-21T04:00:09.952Z,17.65
2023-05-21T04:05:11.334Z,17.67
2023-05-21T04:10:13.124Z,17.68
2023-05-21T04:15:14.554Z,17.63
2023-05-21T04:20:16.744Z,17.66
2023-05-21T04:25:18.176Z,17.71
2023-05-21T04:30:20.015Z,17.81
2023-05-21T04:35:21.496Z,17.84
2023-05-21T04:40:24.312Z,17.84
2023-05-21T04:45:25.674Z,17.89
2023-05-21T04:50:27.068Z,17.97
2023-05-21T04:55:28.870Z,18.03
2023-05-21T05:00:30.396Z,18.06
2023-05-21T05:05:31.790Z,18.14
2023-05-21T05:10:33.166Z,18.23
2023-05-21T05:55:29.119Z,19.20
2023-05-21T06:00:30.674Z,19.25
2023-05-21T06:05:32.110Z,19.34
2023-05-21T06:10:33.495Z,19.50
2023-05-21T06:15:35.047Z,19.55
2023-05-21T06:20:37.073Z,19.66
2023-05-21T06:25:40.488Z,19.76
2023-05-21T06:30:42.138Z,19.83
2023-05-21T06:35:43.548Z,19.99
2023-05-21T06:40:47.373Z,20.01
2023-05-21T06:45:48.797Z,20.14
2023-05-21T06:50:50.188Z,20.26
2023-05-21T06:55:53.786Z,20.37
2023-05-21T07:00:55.353Z,20.45
2023-05-21T07:05:59.765Z,20.57
2023-05-21T07:11:01.187Z,20.67
2023-05-21T07:16:03.008Z,20.80
2023-05-21T07:21:04.536Z,21.01
2023-05-21T07:26:06.010Z,21.28
2023-05-21T07:31:08.338Z,21.52
2023-05-21T07:36:09.807Z,21.77
2023-05-21T07:41:11.303Z,21.99
2023-05-21T07:46:12.733Z,22.16
2023-05-21T07:51:14.405Z,22.32
2023-05-21T07:56:15.856Z,22.35
2023-05-21T08:01:17.286Z,22.52
2023-05-21T08:06:18.700Z,22.58
2023-05-21T08:11:21.723Z,22.67
2023-05-21T08:16:23.562Z,22.82
2023-05-21T08:21:25.047Z,22.94
2023-05-21T08:26:26.490Z,23.00
2023-05-21T08:31:28.106Z,23.00
2023-05-21T08:36:29.537Z,23.15
2023-05-21T08:41:33.648Z,23.24
2023-05-21T08:46:35.797Z,23.25
2023-05-21T08:51:38.864Z,23.27
2023-05-21T08:56:45.702Z,23.37
2023-05-21T09:01:49.938Z,23.51
2023-05-21T09:06:52.023Z,23.47
2023-05-21T09:11:53.692Z,23.43
2023-05-21T09:16:55.142Z,23.51
2023-05-21T09:22:02.615Z,23.86
2023-05-21T09:27:07.136Z,24.10
2023-05-21T09:32:09.946Z,24.53
2023-05-21T09:37:23.685Z,24.83
2023-05-21T09:42:29.747Z,25.11
2023-05-21T09:47:31.331Z,25.39
2023-05-21T09:52:36.598Z,25.65
2023-05-21T09:57:46.794Z,25.78
2023-05-21T10:02:50.589Z,26.11
2023-05-21T10:07:54.338Z,26.37
2023-05-21T10:13:00.758Z,26.75
2023-05-21T10:18:03.669Z,26.91
2023-05-21T10:23:06.172Z,27.00
2023-05-21T10:28:07.612Z,27.23
2023-05-21T10:33:09.234Z,27.43
2023-05-21T10:38:13.617Z,27.61
2023-05-21T10:43:36.560Z,27.95
2023-05-21T10:48:41.102Z,28.23
2023-05-21T10:54:09.050Z,28.42
2023-05-21T10:59:48.121Z,28.72
2023-05-21T11:04:58.654Z,28.75
2023-05-21T11:10:35.348Z,28.81
2023-05-21T11:15:58.612Z,29.24
2023-05-21T11:21:10.487Z,29.32
2023-05-21T11:26:12.001Z,29.66
2023-05-21T11:31:27.322Z,29.94
2023-05-21T11:36:28.849Z,30.20
2023-05-21T11:41:30.481Z,30.41
2023-05-21T11:46:33.981Z,30.50
2023-05-21T11:51:40.169Z,30.69
2023-05-21T11:56:41.921Z,30.89
2023-05-21T12:01:44.129Z,30.84
2023-05-21T12:06:45.704Z,31.12
2023-05-21T12:11:47.523Z,31.49
2023-05-21T12:16:49.017Z,32.10
2023-05-21T12:21:50.628Z,32.22
2023-05-21T12:26:52.170Z,32.25
2023-05-21T12:31:53.741Z,32.72
2023-05-21T12:36:55.556Z,32.97
2023-05-21T12:41:57.035Z,33.27
2023-05-21T12:46:59.473Z,33.29
2023-05-21T12:52:05.890Z,33.51
2023-05-21T12:57:15.226Z,33.72
2023-05-21T13:02:20.408Z,34.02
2023-05-21T13:07:21.779Z,34.17
2023-05-21T13:12:24.996Z,34.22
2023-05-21T13:17:27.684Z,34.71
2023-05-21T13:22:29.171Z,34.66
2023-05-21T13:27:30.997Z,34.32
2023-05-21T13:32:32.456Z,34.17
2023-05-21T13:37:36.131Z,34.49
2023-05-21T13:42:38.462Z,34.81
2023-05-21T13:47:40.663Z,35.13
2023-05-21T13:52:42.317Z,35.10
2023-05-21T13:57:44.168Z,34.92
2023-05-21T14:02:45.813Z,34.49
2023-05-21T14:07:48.239Z,34.55
2023-05-21T14:12:49.636Z,34.54
2023-05-21T14:17:52.271Z,34.28
2023-05-21T14:22:53.666Z,33.98
2023-05-21T14:27:55.032Z,33.99
2023-05-21T14:32:58.001Z,34.03
2023-05-21T14:37:59.491Z,34.17
2023-05-21T14:43:01.139Z,34.07
2023-05-21T14:48:08.172Z,33.99
2023-05-21T14:53:11.463Z,34.00
2023-05-21T14:58:13.248Z,34.03
2023-05-21T15:03:14.673Z,34.16
2023-05-21T15:08:16.083Z,34.13
2023-05-21T15:13:17.515Z,34.12
2023-05-21T15:18:18.900Z,34.13
2023-05-21T15:23:20.327Z,34.11
2023-05-21T15:28:22.846Z,34.00
2023-05-21T15:33:24.552Z,33.99
2023-05-21T15:38:25.953Z,33.93
2023-05-21T15:43:28.352Z,33.76
2023-05-21T15:48:29.746Z,33.61
2023-05-21T15:53:31.128Z,33.68
2023-05-21T15:58:32.585Z,33.74
2023-05-21T16:03:34.011Z,34.04
2023-05-21T16:08:35.428Z,34.20
2023-05-21T16:13:36.885Z,34.28
2023-05-21T16:18:38.498Z,34.56
2023-05-21T16:23:40.157Z,34.80
2023-05-21T16:28:41.672Z,34.95
2023-05-21T16:33:43.089Z,35.16
2023-05-21T16:38:44.653Z,35.30
2023-05-21T16:43:46.221Z,35.41
2023-05-21T16:48:47.588Z,35.29
2023-05-21T16:53:48.953Z,35.25
2023-05-21T16:58:50.343Z,35.20
2023-05-21T17:03:51.847Z,35.16
2023-05-21T17:08:53.374Z,35.05
2023-05-21T17:13:55.201Z,35.01
2023-05-21T17:18:56.603Z,34.90
2023-05-21T17:23:57.979Z,34.63
2023-05-21T17:28:59.359Z,34.44
2023-05-21T17:34:00.815Z,34.09
2023-05-21T17:39:02.365Z,33.89
2023-05-21T17:44:03.942Z,33.63
2023-05-21T17:49:07.358Z,33.51
2023-05-21T17:54:08.784Z,33.34
2023-05-21T17:59:10.946Z,33.22
2023-05-21T18:04:13.223Z,32.91
2023-05-21T18:09:15.390Z,32.52
2023-05-21T18:14:16.832Z,32.12
2023-05-21T18:19:18.297Z,31.73
2023-05-21T18:24:19.763Z,31.33
2023-05-21T18:29:21.146Z,30.88
2023-05-21T18:34:22.595Z,30.55
2023-05-21T18:39:24.818Z,30.19
2023-05-21T18:44:27.191Z,29.87
2023-05-21T18:49:33.723Z,29.54
2023-05-21T18:54:35.105Z,29.23
2023-05-21T18:59:38.587Z,28.82
2023-05-21T19:04:39.990Z,28.58
2023-05-21T19:09:41.430Z,28.22
2023-05-21T19:14:44.876Z,27.92
2023-05-21T19:19:46.272Z,27.46
2023-05-21T19:24:48.362Z,27.07
2023-05-21T19:29:49.804Z,26.82
2023-05-21T19:34:52.176Z,26.50
2023-05-21T19:39:53.552Z,26.12
2023-05-21T19:44:54.925Z,25.84
2023-05-21T19:49:56.412Z,25.70
2023-05-21T19:55:04.582Z,25.50
2023-05-21T20:00:10.154Z,25.33
2023-05-21T20:05:11.696Z,24.99
2023-05-21T20:10:13.180Z,24.81
2023-05-21T20:15:14.916Z,24.76
2023-05-21T20:20:16.735Z,24.60
2023-05-21T20:25:18.307Z,24.51
2023-05-21T20:30:19.723Z,24.32
2023-05-21T20:35:21.182Z,24.15
2023-05-21T20:40:22.669Z,23.84
2023-05-21T20:45:24.066Z,23.81
2023-05-21T20:50:28.596Z,23.71
2023-05-21T20:55:34.605Z,23.71
2023-05-21T21:00:38.493Z,23.66
2023-05-21T21:05:40.116Z,23.56
2023-05-21T21:10:42.602Z,23.44
2023-05-21T21:15:44.298Z,23.35
2023-05-21T21:20:49.770Z,23.29
2023-05-21T21:25:51.582Z,23.19
2023-05-21T21:30:53.110Z,23.09
2023-05-21T21:35:54.496Z,22.98
2023-05-21T21:40:55.925Z,22.82
2023-05-21T21:45:57.321Z,22.71
2023-05-21T21:50:58.968Z,22.63
2023-05-21T21:56:00.752Z,22.46
2023-05-21T22:01:02.227Z,22.31
2023-05-21T22:06:03.733Z,22.23
2023-05-21T22:11:05.228Z,22.16
2023-05-21T22:16:07.293Z,22.04
2023-05-21T22:21:14.179Z,21.98
2023-05-21T22:26:15.912Z,21.87
2023-05-21T22:31:17.492Z,21.77
2023-05-21T22:36:18.946Z,21.66
2023-05-21T22:41:20.684Z,21.38
2023-05-21T22:46:22.148Z,21.27
2023-05-21T22:51:23.730Z,21.22
2023-05-21T22:56:25.101Z,21.23
2023-05-21T23:01:26.670Z,21.18
2023-05-21T23:06:28.046Z,21.10
2023-05-21T23:11:29.436Z,21.08
2023-05-21T23:16:32.166Z,21.06
2023-05-21T23:21:33.605Z,21.07
2023-05-21T23:26:35.467Z,21.06
2023-05-21T23:31:36.992Z,21.02
2023-05-21T23:36:38.391Z,20.98
2023-05-21T23:41:39.815Z,20.96
2023-05-21T23:46:44.418Z,20.91
2023-05-21T23:51:46.665Z,20.70
2023-05-21T23:56:48.064Z,20.53
